sensor_id;sensor_type;location;lat;lon;timestamp;pressure;altitude;pressure_sealevel;temperature;humidity
55424;BME280;41294;42.666;23.350;2024-02-04T00:00:21;95272.34;;;9.07;68.11
55424;BME280;41294;42.666;23.350;2024-02-04T00:02:46;95269.06;;;9.03;67.88
55424;BME280;41294;42.666;23.350;2024-02-04T00:05:12;95275.78;;;9.04;68.05
55424;BME280;41294;42.666;23.350;2024-02-04T00:07:37;95262.66;;;9.04;67.98
55424;BME280;41294;42.666;23.350;2024-02-04T00:10:03;95272.59;;;8.97;68.51
55424;BME280;41294;42.666;23.350;2024-02-04T00:12:28;95271.06;;;8.99;68.18
55424;BME280;41294;42.666;23.350;2024-02-04T00:14:54;95265.38;;;9.00;68.74
55424;BME280;41294;42.666;23.350;2024-02-04T00:17:19;95266.97;;;8.98;68.65
55424;BME280;41294;42.666;23.350;2024-02-04T00:19:45;95279.22;;;9.01;68.99
55424;BME280;41294;42.666;23.350;2024-02-04T00:22:11;95274.09;;;8.98;69.33
55424;BME280;41294;42.666;23.350;2024-02-04T00:24:36;95272.50;;;9.00;68.83
55424;BME280;41294;42.666;23.350;2024-02-04T00:27:02;95269.88;;;9.00;68.93
55424;BME280;41294;42.666;23.350;2024-02-04T00:29:28;95274.28;;;8.91;69.57
55424;BME280;41294;42.666;23.350;2024-02-04T00:31:53;95273.47;;;8.94;69.29
55424;BME280;41294;42.666;23.350;2024-02-04T00:34:19;95275.66;;;8.95;69.34
55424;BME280;41294;42.666;23.350;2024-02-04T00:36:44;95272.50;;;9.00;68.92
55424;BME280;41294;42.666;23.350;2024-02-04T00:39:10;95283.53;;;8.95;69.75
55424;BME280;41294;42.666;23.350;2024-02-04T00:41:36;95269.59;;;8.98;69.30
55424;BME280;41294;42.666;23.350;2024-02-04T00:44:02;95264.34;;;8.98;69.51
55424;BME280;41294;42.666;23.350;2024-02-04T00:46:27;95269.59;;;8.98;69.62
55424;BME280;41294;42.666;23.350;2024-02-04T00:48:53;95262.84;;;8.97;70.21
55424;BME280;41294;42.666;23.350;2024-02-04T00:51:18;95263.19;;;9.11;69.52
55424;BME280;41294;42.666;23.350;2024-02-04T00:53:45;95265.28;;;9.16;69.43
55424;BME280;41294;42.666;23.350;2024-02-04T00:56:11;95267.47;;;9.18;68.86
55424;BME280;41294;42.666;23.350;2024-02-04T00:58:38;95277.16;;;9.21;69.37
55424;BME280;41294;42.666;23.350;2024-02-04T01:01:04;95266.00;;;9.17;69.25
55424;BME280;41294;42.666;23.350;2024-02-04T01:03:31;95267.69;;;9.11;69.47
55424;BME280;41294;42.666;23.350;2024-02-04T01:05:57;95262.88;;;9.09;69.81
55424;BME280;41294;42.666;23.350;2024-02-04T01:08:22;95259.81;;;9.11;70.27
55424;BME280;41294;42.666;23.350;2024-02-04T01:10:48;95261.50;;;9.17;69.93
55424;BME280;41294;42.666;23.350;2024-02-04T01:13:16;95260.34;;;9.06;70.74
55424;BME280;41294;42.666;23.350;2024-02-04T01:15:42;95264.75;;;9.09;70.54
55424;BME280;41294;42.666;23.350;2024-02-04T01:18:07;95267.69;;;9.11;70.71
55424;BME280;41294;42.666;23.350;2024-02-04T01:20:33;95263.91;;;9.12;71.08
55424;BME280;41294;42.666;23.350;2024-02-04T01:22:58;95266.13;;;9.13;71.29
55424;BME280;41294;42.666;23.350;2024-02-04T01:25:23;95263.72;;;9.19;70.79
55424;BME280;41294;42.666;23.350;2024-02-04T01:27:49;95263.72;;;9.19;71.20
55424;BME280;41294;42.666;23.350;2024-02-04T01:30:16;95261.50;;;9.17;71.29
55424;BME280;41294;42.666;23.350;2024-02-04T01:32:41;95258.34;;;9.22;71.10
55424;BME280;41294;42.666;23.350;2024-02-04T01:35:07;95254.69;;;9.20;71.25
55424;BME280;41294;42.666;23.350;2024-02-04T01:37:33;95256.38;;;9.14;71.54
55424;BME280;41294;42.666;23.350;2024-02-04T01:39:58;95255.72;;;9.10;72.06
55424;BME280;41294;42.666;23.350;2024-02-04T01:42:24;95252.16;;;9.16;71.88
55424;BME280;41294;42.666;23.350;2024-02-04T01:44:49;95248.06;;;9.15;72.03
55424;BME280;41294;42.666;23.350;2024-02-04T01:47:16;95249.63;;;9.13;72.26
55424;BME280;41294;42.666;23.350;2024-02-04T01:49:43;95247.44;;;9.11;72.60
55424;BME280;41294;42.666;23.350;2024-02-04T01:52:09;95238.31;;;9.16;72.37
55424;BME280;41294;42.666;23.350;2024-02-04T01:54:37;95238.09;;;9.10;72.72
55424;BME280;41294;42.666;23.350;2024-02-04T01:57:04;95235.25;;;9.17;72.63
55424;BME280;41294;42.666;23.350;2024-02-04T01:59:30;95233.78;;;9.16;73.42
55424;BME280;41294;42.666;23.350;2024-02-04T02:01:59;95234.31;;;9.24;73.15
55424;BME280;41294;42.666;23.350;2024-02-04T02:04:26;95233.34;;;9.30;72.80
55424;BME280;41294;42.666;23.350;2024-02-04T02:06:53;95236.28;;;9.32;72.99
55424;BME280;41294;42.666;23.350;2024-02-04T02:09:19;95243.75;;;9.34;72.89
55424;BME280;41294;42.666;23.350;2024-02-04T02:11:47;95238.81;;;9.36;73.03
55424;BME280;41294;42.666;23.350;2024-02-04T02:14:19;95229.78;;;9.37;73.10
55424;BME280;41294;42.666;23.350;2024-02-04T02:16:47;95230.81;;;9.39;72.97
55424;BME280;41294;42.666;23.350;2024-02-04T02:19:40;95224.63;;;9.46;72.91
55424;BME280;41294;42.666;23.350;2024-02-04T02:22:21;95225.25;;;9.50;72.39
55424;BME280;41294;42.666;23.350;2024-02-04T02:24:50;95233.44;;;9.52;71.80
55424;BME280;41294;42.666;23.350;2024-02-04T02:27:16;95220.00;;;9.50;72.17
55424;BME280;41294;42.666;23.350;2024-02-04T02:29:42;95232.69;;;9.51;72.66
55424;BME280;41294;42.666;23.350;2024-02-04T02:32:07;95227.25;;;9.46;72.20
55424;BME280;41294;42.666;23.350;2024-02-04T02:34:33;95222.19;;;9.51;72.03
55424;BME280;41294;42.666;23.350;2024-02-04T02:39:49;95220.59;;;9.54;72.05
55424;BME280;41294;42.666;23.350;2024-02-04T02:42:18;95218.84;;;9.51;72.32
55424;BME280;41294;42.666;23.350;2024-02-04T02:44:47;95222.06;;;9.55;71.51
55424;BME280;41294;42.666;23.350;2024-02-04T02:47:14;95224.47;;;9.62;71.14
55424;BME280;41294;42.666;23.350;2024-02-04T02:49:40;95225.13;;;9.66;71.22
55424;BME280;41294;42.666;23.350;2024-02-04T02:52:06;95219.31;;;9.71;70.80
55424;BME280;41294;42.666;23.350;2024-02-04T02:54:31;95216.16;;;9.76;70.14
55424;BME280;41294;42.666;23.350;2024-02-04T02:56:57;95215.00;;;9.77;70.12
55424;BME280;41294;42.666;23.350;2024-02-04T02:59:23;95212.19;;;9.71;70.52
55424;BME280;41294;42.666;23.350;2024-02-04T03:01:48;95211.66;;;9.64;70.75
55424;BME280;41294;42.666;23.350;2024-02-04T03:04:14;95209.03;;;9.64;70.84
55424;BME280;41294;42.666;23.350;2024-02-04T03:06:39;95214.69;;;9.75;70.62
55424;BME280;41294;42.666;23.350;2024-02-04T03:09:05;95217.00;;;9.73;70.10
55424;BME280;41294;42.666;23.350;2024-02-04T03:11:31;95209.94;;;9.70;70.16
55424;BME280;41294;42.666;23.350;2024-02-04T03:13:56;95212.38;;;9.77;70.27
55424;BME280;41294;42.666;23.350;2024-02-04T03:16:22;95220.47;;;9.82;70.55
55424;BME280;41294;42.666;23.350;2024-02-04T03:18:47;95202.47;;;9.80;70.47
55424;BME280;41294;42.666;23.350;2024-02-04T03:21:14;95205.41;;;9.82;70.01
55424;BME280;41294;42.666;23.350;2024-02-04T03:23:41;95207.72;;;9.80;69.91
55424;BME280;41294;42.666;23.350;2024-02-04T03:26:07;95206.25;;;9.79;70.43
55424;BME280;41294;42.666;23.350;2024-02-04T03:28:33;95201.06;;;9.88;70.03
55424;BME280;41294;42.666;23.350;2024-02-04T03:30:58;95190.75;;;9.94;69.72
55424;BME280;41294;42.666;23.350;2024-02-04T03:33:24;95207.91;;;9.98;69.93
55424;BME280;41294;42.666;23.350;2024-02-04T03:35:49;95200.66;;;9.90;70.13
55424;BME280;41294;42.666;23.350;2024-02-04T03:38:15;95192.66;;;9.93;69.94
55424;BME280;41294;42.666;23.350;2024-02-04T03:40:40;95191.78;;;9.96;70.02
55424;BME280;41294;42.666;23.350;2024-02-04T03:43:08;95184.88;;;10.02;69.71
55424;BME280;41294;42.666;23.350;2024-02-04T03:45:35;95171.63;;;9.93;70.56
55424;BME280;41294;42.666;23.350;2024-02-04T03:48:01;95165.53;;;9.84;70.75
55424;BME280;41294;42.666;23.350;2024-02-04T03:50:26;95152.41;;;9.84;70.78
55424;BME280;41294;42.666;23.350;2024-02-04T03:52:52;95162.88;;;9.96;70.00
55424;BME280;41294;42.666;23.350;2024-02-04T03:55:18;95163.41;;;9.91;70.55
55424;BME280;41294;42.666;23.350;2024-02-04T03:57:44;95160.78;;;9.91;70.55
55424;BME280;41294;42.666;23.350;2024-02-04T04:00:10;95162.38;;;9.89;71.10
55424;BME280;41294;42.666;23.350;2024-02-04T04:02:35;95177.97;;;9.83;71.54
55424;BME280;41294;42.666;23.350;2024-02-04T04:05:01;95174.50;;;9.86;71.52
55424;BME280;41294;42.666;23.350;2024-02-04T04:07:26;95170.91;;;9.80;72.39
55424;BME280;41294;42.666;23.350;2024-02-04T04:09:51;95186.50;;;9.75;72.51
55424;BME280;41294;42.666;23.350;2024-02-04T04:12:17;95188.09;;;9.73;72.61
55424;BME280;41294;42.666;23.350;2024-02-04T04:14:42;95189.56;;;9.74;73.06
55424;BME280;41294;42.666;23.350;2024-02-04T04:17:08;95180.09;;;9.76;72.76
55424;BME280;41294;42.666;23.350;2024-02-04T04:19:33;95177.88;;;9.75;73.29
55424;BME280;41294;42.666;23.350;2024-02-04T04:22:02;95172.63;;;9.75;73.21
55424;BME280;41294;42.666;23.350;2024-02-04T04:24:27;95155.72;;;9.76;72.84
55424;BME280;41294;42.666;23.350;2024-02-04T04:26:53;95161.56;;;9.79;72.62
55424;BME280;41294;42.666;23.350;2024-02-04T04:29:22;95170.91;;;9.80;72.43
55424;BME280;41294;42.666;23.350;2024-02-04T04:31:48;95167.97;;;9.78;72.75
55424;BME280;41294;42.666;23.350;2024-02-04T04:34:13;95187.63;;;9.86;72.48
55424;BME280;41294;42.666;23.350;2024-02-04T04:36:39;95183.91;;;9.96;72.22
55424;BME280;41294;42.666;23.350;2024-02-04T04:39:04;95174.25;;;9.93;72.00
55424;BME280;41294;42.666;23.350;2024-02-04T04:41:30;95189.91;;;9.97;72.69
55424;BME280;41294;42.666;23.350;2024-02-04T04:43:56;95181.28;;;9.96;72.43
55424;BME280;41294;42.666;23.350;2024-02-04T04:46:25;95184.56;;;10.00;73.17
55424;BME280;41294;42.666;23.350;2024-02-04T04:48:50;95182.84;;;10.06;72.41
55424;BME280;41294;42.666;23.350;2024-02-04T04:51:20;95185.91;;;10.05;72.94
55424;BME280;41294;42.666;23.350;2024-02-04T04:53:46;95187.88;;;10.13;71.99
55424;BME280;41294;42.666;23.350;2024-02-04T04:56:12;95188.34;;;10.21;72.30
55424;BME280;41294;42.666;23.350;2024-02-04T04:58:37;95172.63;;;10.08;72.73
55424;BME280;41294;42.666;23.350;2024-02-04T05:01:04;95190.50;;;10.13;72.30
55424;BME280;41294;42.666;23.350;2024-02-04T05:03:30;95187.13;;;10.13;72.12
55424;BME280;41294;42.666;23.350;2024-02-04T05:05:55;95181.56;;;10.11;71.98
55424;BME280;41294;42.666;23.350;2024-02-04T05:08:21;95173.66;;;10.11;72.12
55424;BME280;41294;42.666;23.350;2024-02-04T05:10:46;95179.19;;;10.04;71.95
55424;BME280;41294;42.666;23.350;2024-02-04T05:13:12;95167.69;;;10.10;71.74
55424;BME280;41294;42.666;23.350;2024-02-04T05:15:37;95180.59;;;10.17;71.34
55424;BME280;41294;42.666;23.350;2024-02-04T05:18:03;95173.84;;;10.16;71.14
55424;BME280;41294;42.666;23.350;2024-02-04T05:20:29;95166.94;;;10.10;71.47
55424;BME280;41294;42.666;23.350;2024-02-04T05:22:54;95179.81;;;10.08;71.54
55424;BME280;41294;42.666;23.350;2024-02-04T05:25:22;95182.56;;;10.04;72.11
55424;BME280;41294;42.666;23.350;2024-02-04T05:27:47;95186.63;;;10.05;72.29
55424;BME280;41294;42.666;23.350;2024-02-04T05:30:13;95182.00;;;10.09;71.55
55424;BME280;41294;42.666;23.350;2024-02-04T05:32:39;95193.16;;;10.13;71.47
55424;BME280;41294;42.666;23.350;2024-02-04T05:35:05;95196.06;;;10.15;71.29
55424;BME280;41294;42.666;23.350;2024-02-04T05:37:35;95190.78;;;10.15;70.94
55424;BME280;41294;42.666;23.350;2024-02-04T05:40:03;95189.94;;;10.18;70.86
55424;BME280;41294;42.666;23.350;2024-02-04T05:42:31;95195.53;;;10.20;70.61
55424;BME280;41294;42.666;23.350;2024-02-04T05:45:00;95195.81;;;10.22;70.18
55424;BME280;41294;42.666;23.350;2024-02-04T05:47:25;95209.28;;;10.24;69.92
55424;BME280;41294;42.666;23.350;2024-02-04T05:49:51;95202.00;;;10.28;69.86
55424;BME280;41294;42.666;23.350;2024-02-04T05:52:16;95210.75;;;10.25;69.67
55424;BME280;41294;42.666;23.350;2024-02-04T05:54:42;95206.53;;;10.28;69.60
55424;BME280;41294;42.666;23.350;2024-02-04T05:57:07;95211.91;;;10.24;68.72
55424;BME280;41294;42.666;23.350;2024-02-04T05:59:33;95221.28;;;10.25;68.54
55424;BME280;41294;42.666;23.350;2024-02-04T06:01:59;95211.06;;;10.27;68.06
55424;BME280;41294;42.666;23.350;2024-02-04T06:04:25;95215.75;;;10.32;68.19
55424;BME280;41294;42.666;23.350;2024-02-04T06:06:50;95216.91;;;10.31;67.85
55424;BME280;41294;42.666;23.350;2024-02-04T06:09:16;95222.81;;;10.35;67.96
55424;BME280;41294;42.666;23.350;2024-02-04T06:11:45;95232.91;;;10.37;67.56
55424;BME280;41294;42.666;23.350;2024-02-04T06:14:10;95228.31;;;10.28;67.90
55424;BME280;41294;42.666;23.350;2024-02-04T06:16:36;95228.00;;;10.26;68.45
55424;BME280;41294;42.666;23.350;2024-02-04T06:19:01;95223.06;;;10.28;68.06
55424;BME280;41294;42.666;23.350;2024-02-04T06:21:27;95220.31;;;10.32;68.17
55424;BME280;41294;42.666;23.350;2024-02-04T06:23:52;95241.16;;;10.26;68.44
55424;BME280;41294;42.666;23.350;2024-02-04T06:26:18;95234.00;;;10.27;68.62
55424;BME280;41294;42.666;23.350;2024-02-04T06:28:43;95228.25;;;10.19;69.00
55424;BME280;41294;42.666;23.350;2024-02-04T06:31:11;95233.38;;;10.23;68.62
55424;BME280;41294;42.666;23.350;2024-02-04T06:33:37;95242.94;;;10.29;68.63
55424;BME280;41294;42.666;23.350;2024-02-04T06:36:02;95245.03;;;10.34;68.03
55424;BME280;41294;42.666;23.350;2024-02-04T06:38:28;95244.78;;;10.41;67.80
55424;BME280;41294;42.666;23.350;2024-02-04T06:40:53;95255.81;;;10.49;67.92
55424;BME280;41294;42.666;23.350;2024-02-04T06:43:19;95259.22;;;10.37;68.72
55424;BME280;41294;42.666;23.350;2024-02-04T06:45:44;95250.28;;;10.34;69.25
55424;BME280;41294;42.666;23.350;2024-02-04T06:48:11;95254.22;;;10.51;68.04
55424;BME280;41294;42.666;23.350;2024-02-04T06:50:36;95256.06;;;10.63;67.49
55424;BME280;41294;42.666;23.350;2024-02-04T06:53:02;95244.19;;;10.59;68.15
55424;BME280;41294;42.666;23.350;2024-02-04T06:55:28;95249.81;;;10.69;67.77
55424;BME280;41294;42.666;23.350;2024-02-04T06:57:53;95250.72;;;10.75;67.50
55424;BME280;41294;42.666;23.350;2024-02-04T07:00:19;95257.84;;;10.66;67.38
55424;BME280;41294;42.666;23.350;2024-02-04T07:02:46;95259.28;;;10.67;67.33
55424;BME280;41294;42.666;23.350;2024-02-04T07:05:12;95265.75;;;10.75;67.07
55424;BME280;41294;42.666;23.350;2024-02-04T07:07:37;95253.47;;;10.72;67.41
55424;BME280;41294;42.666;23.350;2024-02-04T07:10:03;95256.88;;;10.81;66.80
55424;BME280;41294;42.666;23.350;2024-02-04T07:12:29;95256.66;;;10.67;67.42
55424;BME280;41294;42.666;23.350;2024-02-04T07:14:54;95247.34;;;10.75;67.23
55424;BME280;41294;42.666;23.350;2024-02-04T07:17:20;95268.28;;;10.78;67.18
55424;BME280;41294;42.666;23.350;2024-02-04T07:19:45;95255.28;;;10.84;66.73
55424;BME280;41294;42.666;23.350;2024-02-04T07:22:11;95245.69;;;10.90;66.48
55424;BME280;41294;42.666;23.350;2024-02-04T07:24:36;95249.84;;;11.00;65.99
55424;BME280;41294;42.666;23.350;2024-02-04T07:27:02;95251.47;;;11.06;66.08
55424;BME280;41294;42.666;23.350;2024-02-04T07:29:27;95256.78;;;11.15;66.27
55424;BME280;41294;42.666;23.350;2024-02-04T07:31:53;95259.81;;;11.05;65.90
55424;BME280;41294;42.666;23.350;2024-02-04T07:34:18;95246.38;;;11.12;66.02
55424;BME280;41294;42.666;23.350;2024-02-04T07:36:44;95249.00;;;11.12;65.98
55424;BME280;41294;42.666;23.350;2024-02-04T07:39:10;95241.84;;;11.12;66.02
55424;BME280;41294;42.666;23.350;2024-02-04T07:41:36;95255.03;;;11.12;65.80
55424;BME280;41294;42.666;23.350;2024-02-04T07:44:02;95257.81;;;11.18;65.48
55424;BME280;41294;42.666;23.350;2024-02-04T07:46:28;95249.06;;;11.30;64.37
55424;BME280;41294;42.666;23.350;2024-02-04T07:48:53;95257.16;;;11.35;64.01
55424;BME280;41294;42.666;23.350;2024-02-04T07:51:19;95246.72;;;11.23;63.83
55424;BME280;41294;42.666;23.350;2024-02-04T07:53:45;95263.22;;;11.14;64.70
55424;BME280;41294;42.666;23.350;2024-02-04T07:56:10;95260.69;;;11.41;63.38
55424;BME280;41294;42.666;23.350;2024-02-04T07:58:36;95266.72;;;11.90;61.83
55424;BME280;41294;42.666;23.350;2024-02-04T08:01:02;95255.59;;;12.04;61.05
55424;BME280;41294;42.666;23.350;2024-02-04T08:03:27;95267.91;;;11.98;60.58
55424;BME280;41294;42.666;23.350;2024-02-04T08:05:53;95269.25;;;12.83;58.50
55424;BME280;41294;42.666;23.350;2024-02-04T08:08:18;95253.25;;;12.68;58.01
55424;BME280;41294;42.666;23.350;2024-02-04T08:10:44;95265.44;;;12.66;57.85
55424;BME280;41294;42.666;23.350;2024-02-04T08:13:09;95269.56;;;12.49;58.21
55424;BME280;41294;42.666;23.350;2024-02-04T08:15:35;95245.94;;;12.45;57.93
55424;BME280;41294;42.666;23.350;2024-02-04T08:18:00;95256.50;;;12.63;57.89
55424;BME280;41294;42.666;23.350;2024-02-04T08:20:26;95268.59;;;13.14;55.91
55424;BME280;41294;42.666;23.350;2024-02-04T08:22:52;95261.38;;;13.89;53.48
55424;BME280;41294;42.666;23.350;2024-02-04T08:25:18;95265.31;;;15.21;50.09
55424;BME280;41294;42.666;23.350;2024-02-04T08:27:43;95248.56;;;15.78;48.17
55424;BME280;41294;42.666;23.350;2024-02-04T08:30:09;95260.25;;;15.86;47.82
55424;BME280;41294;42.666;23.350;2024-02-04T08:32:37;95260.41;;;16.31;46.78
55424;BME280;41294;42.666;23.350;2024-02-04T08:35:03;95261.22;;;15.83;46.85
55424;BME280;41294;42.666;23.350;2024-02-04T08:37:29;95269.72;;;15.09;48.16
55424;BME280;41294;42.666;23.350;2024-02-04T08:39:54;95264.22;;;14.98;48.85
55424;BME280;41294;42.666;23.350;2024-02-04T08:42:20;95274.53;;;14.82;49.60
55424;BME280;41294;42.666;23.350;2024-02-04T08:44:46;95260.63;;;14.73;50.00
55424;BME280;41294;42.666;23.350;2024-02-04T08:47:12;95271.72;;;14.85;49.95
55424;BME280;41294;42.666;23.350;2024-02-04T08:49:39;95268.59;;;15.01;49.14
55424;BME280;41294;42.666;23.350;2024-02-04T08:52:05;95276.38;;;14.90;48.76
55424;BME280;41294;42.666;23.350;2024-02-04T08:54:30;95269.34;;;14.35;50.07
55424;BME280;41294;42.666;23.350;2024-02-04T08:56:56;95269.91;;;14.16;50.76
55424;BME280;41294;42.666;23.350;2024-02-04T08:59:21;95255.19;;;13.92;53.36
55424;BME280;41294;42.666;23.350;2024-02-04T09:01:49;95266.56;;;14.06;52.77
55424;BME280;41294;42.666;23.350;2024-02-04T09:04:15;95249.66;;;13.81;52.69
55424;BME280;41294;42.666;23.350;2024-02-04T09:06:40;95252.97;;;13.67;53.16
55424;BME280;41294;42.666;23.350;2024-02-04T09:09:06;95263.84;;;13.36;53.71
55424;BME280;41294;42.666;23.350;2024-02-04T09:11:33;95260.53;;;13.50;53.31
55424;BME280;41294;42.666;23.350;2024-02-04T09:13:59;95252.78;;;13.47;53.55
55424;BME280;41294;42.666;23.350;2024-02-04T09:16:24;95263.84;;;13.36;54.07
55424;BME280;41294;42.666;23.350;2024-02-04T09:18:50;95264.19;;;13.20;54.62
55424;BME280;41294;42.666;23.350;2024-02-04T09:21:15;95254.25;;;12.98;55.46
55424;BME280;41294;42.666;23.350;2024-02-04T09:23:41;95257.75;;;12.86;55.96
55424;BME280;41294;42.666;23.350;2024-02-04T09:26:06;95255.59;;;12.75;56.53
55424;BME280;41294;42.666;23.350;2024-02-04T09:28:32;95255.44;;;12.70;56.39
55424;BME280;41294;42.666;23.350;2024-02-04T09:30:57;95270.44;;;12.55;57.10
55424;BME280;41294;42.666;23.350;2024-02-04T09:33:22;95274.84;;;12.40;58.13
55424;BME280;41294;42.666;23.350;2024-02-04T09:35:48;95268.09;;;12.39;58.21
55424;BME280;41294;42.666;23.350;2024-02-04T09:38:14;95267.19;;;12.42;58.53
55424;BME280;41294;42.666;23.350;2024-02-04T09:40:40;95266.03;;;12.43;59.29
55424;BME280;41294;42.666;23.350;2024-02-04T09:43:06;95268.66;;;12.61;58.93
55424;BME280;41294;42.666;23.350;2024-02-04T09:45:32;95269.22;;;13.01;58.14
55424;BME280;41294;42.666;23.350;2024-02-04T09:47:58;95280.19;;;13.58;56.10
55424;BME280;41294;42.666;23.350;2024-02-04T09:50:25;95280.53;;;13.51;56.48
55424;BME280;41294;42.666;23.350;2024-02-04T09:52:55;95269.13;;;13.36;56.59
55424;BME280;41294;42.666;23.350;2024-02-04T09:55:24;95263.25;;;13.32;56.18
55424;BME280;41294;42.666;23.350;2024-02-04T09:57:50;95259.81;;;13.09;56.92
55424;BME280;41294;42.666;23.350;2024-02-04T10:00:19;95255.34;;;13.23;57.16
55424;BME280;41294;42.666;23.350;2024-02-04T10:02:48;95247.13;;;13.21;57.28
55424;BME280;41294;42.666;23.350;2024-02-04T10:05:14;95246.88;;;13.19;57.55
55424;BME280;41294;42.666;23.350;2024-02-04T10:07:40;95242.28;;;13.20;57.76
55424;BME280;41294;42.666;23.350;2024-02-04T10:10:07;95248.38;;;13.12;58.59
55424;BME280;41294;42.666;23.350;2024-02-04T10:12:32;95264.22;;;13.12;58.94
55424;BME280;41294;42.666;23.350;2024-02-04T10:14:59;95258.63;;;13.18;59.17
55424;BME280;41294;42.666;23.350;2024-02-04T10:17:25;95264.81;;;13.07;59.35
55424;BME280;41294;42.666;23.350;2024-02-04T10:19:50;95251.09;;;13.17;59.10
55424;BME280;41294;42.666;23.350;2024-02-04T10:22:16;95261.69;;;13.17;59.49
55424;BME280;41294;42.666;23.350;2024-02-04T10:24:42;95264.47;;;13.22;59.68
55424;BME280;41294;42.666;23.350;2024-02-04T10:27:10;95279.25;;;13.38;58.94
55424;BME280;41294;42.666;23.350;2024-02-04T10:29:36;95260.97;;;13.16;59.93
55424;BME280;41294;42.666;23.350;2024-02-04T10:32:02;95260.38;;;13.13;59.94
55424;BME280;41294;42.666;23.350;2024-02-04T10:34:28;95270.38;;;13.09;60.33
55424;BME280;41294;42.666;23.350;2024-02-04T10:36:56;95252.41;;;13.21;59.70
55424;BME280;41294;42.666;23.350;2024-02-04T10:39:21;95258.91;;;13.20;60.14
55424;BME280;41294;42.666;23.350;2024-02-04T10:41:51;95261.88;;;13.05;60.53
55424;BME280;41294;42.666;23.350;2024-02-04T10:44:22;95255.09;;;13.13;60.31
55424;BME280;41294;42.666;23.350;2024-02-04T10:46:49;95265.41;;;13.02;60.97
55424;BME280;41294;42.666;23.350;2024-02-04T10:49:15;95265.09;;;13.09;60.67
55424;BME280;41294;42.666;23.350;2024-02-04T10:51:41;95256.03;;;13.01;61.02
55424;BME280;41294;42.666;23.350;2024-02-04T10:54:08;95255.59;;;12.93;61.12
55424;BME280;41294;42.666;23.350;2024-02-04T10:56:38;95253.56;;;12.88;61.47
55424;BME280;41294;42.666;23.350;2024-02-04T10:59:07;95264.53;;;12.96;60.99
55424;BME280;41294;42.666;23.350;2024-02-04T11:01:33;95256.03;;;12.92;60.72
55424;BME280;41294;42.666;23.350;2024-02-04T11:03:59;95248.09;;;12.83;61.29
55424;BME280;41294;42.666;23.350;2024-02-04T11:06:26;95252.22;;;12.93;61.32
55424;BME280;41294;42.666;23.350;2024-02-04T11:08:52;95241.66;;;12.84;61.08
55424;BME280;41294;42.666;23.350;2024-02-04T11:11:19;95247.19;;;12.86;61.17
55424;BME280;41294;42.666;23.350;2024-02-04T11:13:48;95256.84;;;13.15;60.44
55424;BME280;41294;42.666;23.350;2024-02-04T11:19:32;95244.94;;;13.20;59.82
55424;BME280;41294;42.666;23.350;2024-02-04T11:24:54;95234.84;;;13.97;57.54
55424;BME280;41294;42.666;23.350;2024-02-04T11:27:25;95224.94;;;14.07;57.17
55424;BME280;41294;42.666;23.350;2024-02-04T11:29:51;95223.94;;;14.42;55.85
55424;BME280;41294;42.666;23.350;2024-02-04T11:32:17;95223.63;;;14.26;55.97
55424;BME280;41294;42.666;23.350;2024-02-04T11:34:44;95212.91;;;14.29;55.83
55424;BME280;41294;42.666;23.350;2024-02-04T11:37:16;95228.84;;;14.35;55.58
55424;BME280;41294;42.666;23.350;2024-02-04T11:39:51;95223.78;;;14.46;55.43
55424;BME280;41294;42.666;23.350;2024-02-04T11:45:12;95217.63;;;14.02;56.14
55424;BME280;41294;42.666;23.350;2024-02-04T11:47:38;95214.53;;;14.03;56.45
55424;BME280;41294;42.666;23.350;2024-02-04T11:50:05;95207.59;;;13.59;57.66
55424;BME280;41294;42.666;23.350;2024-02-04T11:52:30;95187.41;;;13.38;58.15
55424;BME280;41294;42.666;23.350;2024-02-04T11:54:56;95188.69;;;13.75;57.43
55424;BME280;41294;42.666;23.350;2024-02-04T11:57:22;95184.00;;;14.17;56.88
55424;BME280;41294;42.666;23.350;2024-02-04T11:59:48;95174.81;;;14.56;55.17
55424;BME280;41294;42.666;23.350;2024-02-04T12:02:18;95176.28;;;14.85;53.75
55424;BME280;41294;42.666;23.350;2024-02-04T12:04:45;95169.97;;;14.83;53.78
55424;BME280;41294;42.666;23.350;2024-02-04T12:07:13;95162.94;;;14.94;53.25
55424;BME280;41294;42.666;23.350;2024-02-04T12:09:39;95165.53;;;15.23;52.33
55424;BME280;41294;42.666;23.350;2024-02-04T12:12:06;95161.88;;;15.21;52.01
55424;BME280;41294;42.666;23.350;2024-02-04T12:14:32;95179.53;;;15.09;51.99
55424;BME280;41294;42.666;23.350;2024-02-04T12:17:07;95176.06;;;15.18;51.69
55424;BME280;41294;42.666;23.350;2024-02-04T12:19:33;95176.78;;;15.18;51.67
55424;BME280;41294;42.666;23.350;2024-02-04T12:21:59;95172.66;;;15.32;51.13
55424;BME280;41294;42.666;23.350;2024-02-04T12:24:24;95148.72;;;15.26;51.56
55424;BME280;41294;42.666;23.350;2024-02-04T12:26:50;95155.41;;;15.07;51.79
55424;BME280;41294;42.666;23.350;2024-02-04T12:29:16;95161.06;;;15.29;51.53
55424;BME280;41294;42.666;23.350;2024-02-04T12:31:41;95159.88;;;15.50;50.78
55424;BME280;41294;42.666;23.350;2024-02-04T12:34:08;95171.94;;;15.31;50.68
55424;BME280;41294;42.666;23.350;2024-02-04T12:36:33;95164.09;;;15.22;50.74
55424;BME280;41294;42.666;23.350;2024-02-04T12:39:01;95171.09;;;15.40;50.39
55424;BME280;41294;42.666;23.350;2024-02-04T12:41:27;95153.00;;;15.38;50.31
55424;BME280;41294;42.666;23.350;2024-02-04T12:43:59;95149.72;;;15.14;50.99
55424;BME280;41294;42.666;23.350;2024-02-04T12:46:30;95149.81;;;15.20;50.52
55424;BME280;41294;42.666;23.350;2024-02-04T12:48:57;95151.47;;;15.17;50.67
55424;BME280;41294;42.666;23.350;2024-02-04T12:51:31;95152.59;;;14.96;50.66
55424;BME280;41294;42.666;23.350;2024-02-04T12:54:07;95148.03;;;14.82;50.73
55424;BME280;41294;42.666;23.350;2024-02-04T12:56:59;95153.81;;;14.38;51.83
55424;BME280;41294;42.666;23.350;2024-02-04T12:59:32;95157.34;;;14.35;52.98